Terminal Aerodrome Forecast
Issued by NWS Sterling, VA

Home | Current Version | Previous Version | Text Only | Print | Product List | Glossary On
Versions: 1 2 3 4 5 6 7 8 9 10 11 12 13 14 15
000
FTUS41 KLWX 030956 AAA
TAFCHO
TAF AMD
KCHO 030956Z 0310/0406 VRB03KT 3SM BR SKC
     FM031200 VRB03KT 5SM BR SKC
     FM031400 VRB03KT P6SM SKC
     FM031600 VRB04KT P6SM BKN060=

USA.gov is the U.S. government's official web portal to all federal, state and local government web resources and services.